Terminal Aerodrome Forecast
Issued by NWS Cleveland, OH

Home | Current Version | Previous Version | Text Only | Print | Product List | Glossary On
Versions: 1 2 3 4 5 6 7 8 9 10 11 12 13 14 15 16 17 18
000
FTUS41 KCLE 022300
TAFYNG
TAF
KYNG 022335Z 0300/0324 28006KT P6SM SCT025 BKN040
     FM030300 VRB03KT P6SM BKN250
     FM030900 VRB03KT 3SM BR SCT004
      TEMPO 0311/0313 2SM BR BKN004
     FM031400 22003KT P6SM BKN010
     FM031600 22006KT P6SM SCT035=

USA.gov is the U.S. government's official web portal to all federal, state and local government web resources and services.